createdAt,value
2022-12-08T00:00:02.529Z,97835.47
2022-12-08T00:02:29.097Z,97827.84
2022-12-08T00:05:14.179Z,97830.38
2022-12-08T00:07:59.093Z,97826.97
2022-12-08T00:10:48.416Z,97830.38
2022-12-08T00:13:12.126Z,97827.03
2022-12-08T00:15:38.537Z,97828.69
2022-12-08T00:18:05.393Z,97826.16
2022-12-08T00:20:31.796Z,97826.19
2022-12-08T00:22:58.207Z,97821.94
2022-12-08T00:25:24.627Z,97821.13
2022-12-08T00:27:50.995Z,97811.81
2022-12-08T00:30:17.382Z,97819.44
2022-12-08T00:32:43.776Z,97813.47
2022-12-08T00:35:10.221Z,97805.00
2022-12-08T00:37:36.611Z,97810.13
2022-12-08T00:40:03.620Z,97808.41
2022-12-08T00:42:30.225Z,97806.69
2022-12-08T00:44:56.606Z,97803.31
2022-12-08T00:47:24.952Z,97809.22
2022-12-08T00:49:51.975Z,97813.47
2022-12-08T00:52:18.442Z,97816.03
2022-12-08T00:54:44.973Z,97810.94
2022-12-08T00:57:11.614Z,97814.34
2022-12-08T00:59:38.002Z,97810.06
2022-12-08T01:02:04.407Z,97811.78
2022-12-08T01:04:30.791Z,97806.72
2022-12-08T01:06:57.224Z,97805.84
2022-12-08T01:09:23.772Z,97811.78
2022-12-08T01:11:52.312Z,97813.47
2022-12-08T01:14:18.762Z,97806.72
2022-12-08T01:16:45.198Z,97810.94
2022-12-08T01:19:14.038Z,97805.88
2022-12-08T01:21:41.451Z,97810.97
2022-12-08T01:24:14.093Z,97816.91
2022-12-08T01:26:40.685Z,97808.44
2022-12-08T01:29:07.071Z,97812.66
2022-12-08T01:31:37.568Z,97808.44
2022-12-08T01:34:04.269Z,97806.75
2022-12-08T01:36:32.744Z,97816.91
2022-12-08T01:39:01.366Z,97808.44
2022-12-08T01:41:30.867Z,97806.75
2022-12-08T01:44:02.096Z,97805.06
2022-12-08T01:46:31.294Z,97805.91
2022-12-08T01:49:10.876Z,97809.28
2022-12-08T01:51:44.116Z,97810.16
2022-12-08T01:54:12.601Z,97805.09
2022-12-08T01:56:52.662Z,97801.66
2022-12-08T01:59:19.392Z,97800.00
2022-12-08T02:01:45.894Z,97794.06
2022-12-08T02:04:12.395Z,97794.91
2022-12-08T02:06:43.063Z,97792.38
2022-12-08T02:09:09.765Z,97789.84
2022-12-08T02:11:36.314Z,97790.69
2022-12-08T02:14:06.372Z,97781.38
2022-12-08T02:16:54.129Z,97782.22
2022-12-08T02:20:10.126Z,97778.81
2022-12-08T02:22:48.530Z,97768.66
2022-12-08T02:25:19.453Z,97770.38
2022-12-08T02:28:10.650Z,97770.38
2022-12-08T02:31:18.736Z,97757.69
2022-12-08T02:34:09.366Z,97760.22
2022-12-08T02:36:56.176Z,97759.38
2022-12-08T02:39:42.105Z,97752.59
2022-12-08T02:42:30.735Z,97757.69
2022-12-08T02:45:11.723Z,97754.31
2022-12-08T02:47:38.465Z,97755.16
2022-12-08T02:50:05.659Z,97747.53
2022-12-08T02:52:32.214Z,97747.56
2022-12-08T02:55:09.303Z,97742.47
2022-12-08T02:58:10.891Z,97741.63
2022-12-08T03:00:43.773Z,97745.00
2022-12-08T03:03:21.527Z,97737.41
2022-12-08T03:06:14.311Z,97743.31
2022-12-08T03:09:39.622Z,97737.41
2022-12-08T03:12:18.367Z,97738.25
2022-12-08T03:14:48.415Z,97725.56
2022-12-08T03:17:19.037Z,97725.53
2022-12-08T03:19:47.755Z,97722.19
2022-12-08T03:22:19.717Z,97720.50
2022-12-08T03:24:46.957Z,97718.78
2022-12-08T03:27:21.402Z,97719.63
2022-12-08T03:29:51.065Z,97718.78
2022-12-08T03:32:23.823Z,97717.94
2022-12-08T03:34:51.650Z,97713.72
2022-12-08T03:37:18.235Z,97712.88
2022-12-08T03:39:44.692Z,97711.16
2022-12-08T03:42:11.134Z,97706.94
2022-12-08T03:44:37.510Z,97711.16
2022-12-08T03:47:03.957Z,97703.56
2022-12-08T03:49:30.348Z,97702.72
2022-12-08T03:51:56.833Z,97698.44
2022-12-08T03:54:24.242Z,97697.63
2022-12-08T03:56:50.736Z,97692.56
2022-12-08T03:59:17.204Z,97699.34
2022-12-08T04:01:43.659Z,97694.25
2022-12-08T04:04:10.112Z,97692.53
2022-12-08T04:06:36.516Z,97690.84
2022-12-08T04:09:03.611Z,97693.41
2022-12-08T04:11:30.075Z,97694.25
2022-12-08T04:13:56.594Z,97689.19
2022-12-08T04:16:25.994Z,97686.63
2022-12-08T04:18:52.461Z,97686.63
2022-12-08T04:21:18.829Z,97686.66
2022-12-08T04:23:45.837Z,97680.69
2022-12-08T04:26:13.524Z,97679.84
2022-12-08T04:28:40.001Z,97684.94
2022-12-08T04:31:06.717Z,97691.69
2022-12-08T04:33:36.496Z,97684.09
2022-12-08T04:36:04.957Z,97685.78
2022-12-08T04:38:31.835Z,97675.63
2022-12-08T04:40:58.308Z,97679.84
2022-12-08T04:43:24.764Z,97680.69
2022-12-08T04:45:51.241Z,97677.31
2022-12-08T04:48:20.115Z,97672.25
2022-12-08T04:50:46.815Z,97673.97
2022-12-08T04:53:14.790Z,97669.72
2022-12-08T04:55:44.090Z,97672.25
2022-12-08T04:58:15.468Z,97661.25
2022-12-08T05:00:42.054Z,97667.19
2022-12-08T05:03:09.402Z,97668.03
2022-12-08T05:05:36.036Z,97662.97
2022-12-08T05:08:02.600Z,97663.78
2022-12-08T05:10:29.119Z,97667.19
2022-12-08T05:12:55.567Z,97665.50
2022-12-08T05:15:21.947Z,97660.41
2022-12-08T05:17:48.413Z,97668.03
2022-12-08T05:20:14.787Z,97662.13
2022-12-08T05:22:41.267Z,97666.31
2022-12-08T05:25:08.002Z,97668.88
2022-12-08T05:27:34.795Z,97662.94
2022-12-08T05:30:01.521Z,97662.97
2022-12-08T05:32:28.182Z,97663.81
2022-12-08T05:34:54.609Z,97657.03
2022-12-08T05:37:21.017Z,97666.31
2022-12-08T05:39:47.563Z,97664.66
2022-12-08T05:42:13.953Z,97661.25
2022-12-08T05:44:40.374Z,97657.91
2022-12-08T05:47:06.776Z,97657.91
2022-12-08T05:49:33.273Z,97656.19
2022-12-08T05:51:59.668Z,97664.66
2022-12-08T05:54:26.106Z,97662.97
2022-12-08T05:56:52.511Z,97653.66
2022-12-08T05:59:19.265Z,97656.19
2022-12-08T06:01:45.806Z,97657.91
2022-12-08T06:04:12.604Z,97651.13
2022-12-08T06:06:39.021Z,97654.50
2022-12-08T06:09:06.475Z,97649.44
2022-12-08T06:11:33.758Z,97658.75
2022-12-08T06:14:00.238Z,97652.84
2022-12-08T06:16:28.093Z,97657.88
2022-12-08T06:18:55.137Z,97653.66
2022-12-08T06:21:21.526Z,97659.59
2022-12-08T06:23:50.251Z,97657.88
2022-12-08T06:26:17.941Z,97657.06
2022-12-08T06:28:44.549Z,97654.53
2022-12-08T06:31:14.956Z,97658.75
2022-12-08T06:33:41.494Z,97649.44
2022-12-08T06:36:08.223Z,97655.34
2022-12-08T06:38:38.118Z,97659.59
2022-12-08T06:41:07.414Z,97656.22
2022-12-08T06:43:34.063Z,97657.91
2022-12-08T06:46:01.590Z,97651.97
2022-12-08T06:48:28.046Z,97650.28
2022-12-08T06:50:54.652Z,97663.00
2022-12-08T06:53:21.032Z,97666.38
2022-12-08T06:55:59.164Z,97660.44
2022-12-08T06:58:25.909Z,97658.75
2022-12-08T07:00:52.504Z,97653.66
2022-12-08T07:03:19.262Z,97657.88
2022-12-08T07:05:45.684Z,97662.13
2022-12-08T07:08:12.295Z,97656.22
2022-12-08T07:10:38.850Z,97655.34
2022-12-08T07:13:05.258Z,97659.56
2022-12-08T07:15:31.679Z,97657.91
2022-12-08T07:18:00.041Z,97665.53
2022-12-08T07:20:27.035Z,97660.44
2022-12-08T07:22:53.802Z,97668.06
2022-12-08T07:25:20.530Z,97666.38
2022-12-08T07:27:47.585Z,97661.28
2022-12-08T07:30:14.994Z,97663.81
2022-12-08T07:32:41.414Z,97668.88
2022-12-08T07:35:08.521Z,97667.19
2022-12-08T07:37:36.224Z,97668.03
2022-12-08T07:40:04.226Z,97668.06
2022-12-08T07:42:30.957Z,97666.38
2022-12-08T07:44:57.345Z,97663.81
2022-12-08T07:47:23.759Z,97667.19
2022-12-08T07:49:50.211Z,97668.03
2022-12-08T07:52:16.686Z,97662.97
2022-12-08T07:54:43.190Z,97655.34
2022-12-08T07:57:09.863Z,97661.25
2022-12-08T07:59:36.351Z,97663.78
2022-12-08T08:02:22.789Z,97656.19
2022-12-08T08:04:52.870Z,97659.53
2022-12-08T08:07:19.367Z,97661.19
2022-12-08T08:09:45.924Z,97668.00
2022-12-08T08:15:00.802Z,97670.53
2022-12-08T08:17:28.235Z,97666.25
2022-12-08T08:19:54.861Z,97662.06
2022-12-08T08:22:21.336Z,97663.72
2022-12-08T08:24:47.886Z,97659.50
2022-12-08T08:27:14.290Z,97657.78
2022-12-08T08:29:40.687Z,97665.41
2022-12-08T08:32:07.245Z,97667.94
2022-12-08T08:34:33.753Z,97662.84
2022-12-08T08:37:00.233Z,97667.09
2022-12-08T08:39:27.049Z,97666.25
2022-12-08T08:41:53.465Z,97668.75
2022-12-08T08:44:19.831Z,97665.41
2022-12-08T08:46:46.288Z,97658.63
2022-12-08T08:49:13.067Z,97659.47
2022-12-08T08:51:39.556Z,97661.09
2022-12-08T08:54:06.030Z,97658.53
2022-12-08T08:56:32.736Z,97661.94
2022-12-08T08:58:59.198Z,97650.91
2022-12-08T09:01:27.793Z,97653.41
2022-12-08T09:03:55.353Z,97651.66
2022-12-08T09:06:22.889Z,97652.50
2022-12-08T09:08:49.910Z,97655.84
2022-12-08T09:11:18.663Z,97656.63
2022-12-08T09:13:48.307Z,97657.50
2022-12-08T09:16:14.865Z,97663.34
2022-12-08T09:18:41.448Z,97659.09
2022-12-08T09:21:12.958Z,97657.41
2022-12-08T09:23:39.758Z,97662.47
2022-12-08T09:26:06.520Z,97657.34
2022-12-08T09:28:33.388Z,97658.25
2022-12-08T09:31:00.207Z,97661.66
2022-12-08T09:33:29.068Z,97658.28
2022-12-08T09:35:55.648Z,97656.56
2022-12-08T09:38:22.056Z,97655.69
2022-12-08T09:40:51.092Z,97659.09
2022-12-08T09:43:36.162Z,97661.53
2022-12-08T09:46:07.453Z,97646.28
2022-12-08T09:48:47.928Z,97644.59
2022-12-08T09:51:16.013Z,97647.19
2022-12-08T09:53:48.320Z,97644.56
2022-12-08T09:56:22.742Z,97636.97
2022-12-08T09:59:02.806Z,97639.53
2022-12-08T10:01:32.219Z,97630.22
2022-12-08T10:03:59.498Z,97629.38
2022-12-08T10:06:41.110Z,97626.81
2022-12-08T10:09:25.789Z,97622.56
2022-12-08T10:12:13.648Z,97623.44
2022-12-08T10:14:47.094Z,97620.06
2022-12-08T10:17:23.744Z,97621.72
2022-12-08T10:19:57.769Z,97625.13
2022-12-08T10:22:27.011Z,97613.25
2022-12-08T10:25:10.917Z,97616.63
2022-12-08T10:27:37.609Z,97608.97
2022-12-08T10:30:13.167Z,97606.41
2022-12-08T10:32:44.070Z,97612.38
2022-12-08T10:35:16.246Z,97595.41
2022-12-08T10:37:56.345Z,97589.44
2022-12-08T10:40:22.783Z,97587.81
2022-12-08T10:42:53.461Z,97585.16
2022-12-08T10:45:28.059Z,97585.97
2022-12-08T10:47:59.503Z,97582.56
2022-12-08T10:50:35.968Z,97581.59
2022-12-08T10:53:08.367Z,97570.53
2022-12-08T10:55:47.456Z,97567.94
2022-12-08T10:58:44.206Z,97572.06
2022-12-08T11:01:36.342Z,97568.59
2022-12-08T11:04:05.549Z,97561.75
2022-12-08T11:06:35.650Z,97561.78
2022-12-08T11:09:06.879Z,97551.50
2022-12-08T11:11:50.714Z,97553.97
2022-12-08T11:14:32.328Z,97555.66
2022-12-08T11:17:27.340Z,97544.59
2022-12-08T11:20:29.204Z,97546.22
2022-12-08T11:22:56.303Z,97546.25
2022-12-08T11:25:27.563Z,97537.75
2022-12-08T11:27:58.034Z,97530.09
2022-12-08T11:30:38.756Z,97528.47
2022-12-08T11:33:23.663Z,97533.63
2022-12-08T11:36:01.798Z,97527.78
2022-12-08T11:38:29.883Z,97526.97
2022-12-08T11:41:04.277Z,97522.81
2022-12-08T11:43:33.748Z,97527.84
2022-12-08T11:46:03.052Z,97533.88
2022-12-08T11:48:40.987Z,97522.84
2022-12-08T11:51:15.196Z,97519.47
2022-12-08T11:53:54.196Z,97523.75
2022-12-08T11:56:29.067Z,97517.84
2022-12-08T11:59:10.441Z,97516.94
2022-12-08T12:01:42.396Z,97522.88
2022-12-08T12:04:31.544Z,97515.13
2022-12-08T12:07:29.391Z,97512.53
2022-12-08T12:10:23.810Z,97515.91
2022-12-08T12:12:56.046Z,97510.81
2022-12-08T12:15:47.809Z,97509.94
2022-12-08T12:18:40.354Z,97510.84
2022-12-08T12:21:19.849Z,97500.63
2022-12-08T12:24:16.943Z,97506.59
2022-12-08T12:27:00.171Z,97502.34
2022-12-08T12:29:31.102Z,97500.66
2022-12-08T12:32:08.794Z,97495.56
2022-12-08T12:34:53.210Z,97502.31
2022-12-08T12:37:35.054Z,97500.63
2022-12-08T12:40:03.648Z,97500.69
2022-12-08T12:42:41.146Z,97502.34
2022-12-08T12:45:12.405Z,97497.34
2022-12-08T12:47:56.308Z,97499.91
2022-12-08T12:50:52.859Z,97502.47
2022-12-08T12:53:19.235Z,97499.91
2022-12-08T12:55:45.653Z,97499.03
2022-12-08T12:58:30.340Z,97498.19
2022-12-08T13:01:12.657Z,97492.25
2022-12-08T13:03:45.792Z,97485.47
2022-12-08T13:06:14.852Z,97486.31
2022-12-08T13:08:50.972Z,97481.25
2022-12-08T13:11:17.642Z,97481.25
2022-12-08T13:14:04.598Z,97476.09
2022-12-08T13:16:39.492Z,97475.28
2022-12-08T13:19:15.876Z,97473.53
2022-12-08T13:21:42.649Z,97470.16
2022-12-08T13:24:12.931Z,97476.03
2022-12-08T13:27:18.580Z,97474.34
2022-12-08T13:30:05.331Z,97475.22
2022-12-08T13:33:17.139Z,97466.81
2022-12-08T13:35:50.397Z,97466.75
2022-12-08T13:38:21.079Z,97465.88
2022-12-08T13:40:48.193Z,97462.47
2022-12-08T13:43:44.679Z,97459.19
2022-12-08T13:58:01.978Z,97462.59
2022-12-08T14:00:28.485Z,97466.81
2022-12-08T14:03:00.574Z,97463.41
2022-12-08T14:06:10.366Z,97465.06
2022-12-08T14:08:59.915Z,97468.41
2022-12-08T14:11:36.768Z,97465.78
2022-12-08T14:14:14.437Z,97470.91
2022-12-08T14:16:52.809Z,97464.88
2022-12-08T14:19:23.030Z,97462.34
2022-12-08T14:21:58.737Z,97465.78
2022-12-08T14:24:30.257Z,97474.25
2022-12-08T14:27:18.928Z,97471.72
2022-12-08T14:29:47.506Z,97471.75
2022-12-08T14:32:23.179Z,97465.84
2022-12-08T14:35:01.781Z,97466.75
2022-12-08T14:37:32.305Z,97461.66
2022-12-08T14:40:04.466Z,97463.34
2022-12-08T14:42:31.232Z,97461.75
2022-12-08T14:45:20.630Z,97458.38
2022-12-08T14:47:51.136Z,97458.38
2022-12-08T14:50:38.221Z,97462.63
2022-12-08T14:53:11.110Z,97455.88
2022-12-08T14:55:38.016Z,97456.66
2022-12-08T14:58:04.934Z,97457.66
2022-12-08T15:00:31.603Z,97461.91
2022-12-08T15:02:58.021Z,97457.69
2022-12-08T15:05:30.615Z,97458.56
2022-12-08T15:08:03.408Z,97461.13
2022-12-08T15:10:33.211Z,97464.59
2022-12-08T15:13:08.799Z,97460.31
2022-12-08T15:15:56.097Z,97451.88
2022-12-08T15:18:36.806Z,97459.56
2022-12-08T15:21:12.815Z,97462.13
2022-12-08T15:23:49.938Z,97463.03
2022-12-08T15:26:22.120Z,97463.88
2022-12-08T15:28:48.527Z,97469.03
2022-12-08T15:31:15.950Z,97457.13
2022-12-08T15:33:42.339Z,97467.31
2022-12-08T15:36:09.645Z,97461.38
2022-12-08T15:38:37.019Z,97465.63
2022-12-08T15:41:04.390Z,97463.97
2022-12-08T15:43:31.904Z,97463.09
2022-12-08T15:46:00.050Z,97463.16
2022-12-08T15:48:28.964Z,97460.63
2022-12-08T15:50:56.433Z,97456.34
2022-12-08T15:53:22.903Z,97457.19
2022-12-08T15:56:18.843Z,97462.25
2022-12-08T15:58:54.108Z,97453.81
2022-12-08T16:01:21.126Z,97456.34
2022-12-08T16:09:32.859Z,97452.97
2022-12-08T16:12:18.116Z,97462.28
2022-12-08T16:15:47.040Z,97458.09
2022-12-08T16:17:31.785Z,97460.66
2022-12-08T16:19:58.916Z,97464.91
2022-12-08T16:25:18.643Z,97466.59
2022-12-08T16:28:12.266Z,97463.22
2022-12-08T16:30:33.226Z,97459.84
2022-12-08T16:32:59.679Z,97459.81
2022-12-08T16:35:28.586Z,97464.09
2022-12-08T16:37:55.164Z,97467.47
2022-12-08T16:40:22.006Z,97461.53
2022-12-08T16:42:50.129Z,97470.88
2022-12-08T16:45:28.099Z,97460.72
2022-12-08T16:48:00.270Z,97467.47
2022-12-08T16:50:31.887Z,97459.00
2022-12-08T16:53:05.102Z,97457.31
2022-12-08T16:55:32.616Z,97459.91
2022-12-08T16:57:59.492Z,97461.56
2022-12-08T17:00:27.897Z,97466.66
2022-12-08T17:02:55.329Z,97466.66
2022-12-08T17:05:24.030Z,97474.31
2022-12-08T17:07:52.742Z,97466.66
2022-12-08T17:10:22.940Z,97464.97
2022-12-08T17:12:49.971Z,97466.75
2022-12-08T17:15:21.809Z,97466.72
2022-12-08T17:17:48.383Z,97465.88
2022-12-08T17:20:20.811Z,97466.69
2022-12-08T17:22:47.762Z,97466.66
2022-12-08T17:25:14.521Z,97468.41
2022-12-08T17:27:41.944Z,97469.28
2022-12-08T17:30:11.644Z,97467.56
2022-12-08T17:32:38.947Z,97464.19
2022-12-08T17:35:06.310Z,97462.56
2022-12-08T17:37:33.478Z,97467.59
2022-12-08T17:39:59.906Z,97467.59
2022-12-08T17:42:27.240Z,97459.16
2022-12-08T17:44:54.351Z,97464.22
2022-12-08T17:47:20.843Z,97462.53
2022-12-08T17:49:48.779Z,97456.63
2022-12-08T17:52:15.215Z,97455.78
2022-12-08T17:54:41.642Z,97459.16
2022-12-08T17:57:08.153Z,97461.72
2022-12-08T17:59:34.583Z,97460.88
2022-12-08T18:02:01.316Z,97465.13
2022-12-08T18:04:28.647Z,97462.63
2022-12-08T18:06:55.336Z,97457.50
2022-12-08T18:09:21.886Z,97460.09
2022-12-08T18:11:48.545Z,97457.56
2022-12-08T18:14:16.116Z,97468.63
2022-12-08T18:16:45.229Z,97461.84
2022-12-08T18:19:13.023Z,97460.16
2022-12-08T18:21:40.207Z,97458.50
2022-12-08T18:24:08.103Z,97459.34
2022-12-08T18:26:35.111Z,97460.22
2022-12-08T18:29:01.802Z,97461.94
2022-12-08T18:31:28.319Z,97461.16
2022-12-08T18:33:54.857Z,97459.47
2022-12-08T18:36:24.633Z,97457.81
2022-12-08T18:38:52.323Z,97455.25
2022-12-08T18:41:24.434Z,97449.31
2022-12-08T18:43:51.073Z,97447.63
2022-12-08T18:46:17.598Z,97447.63
2022-12-08T18:48:47.121Z,97454.44
2022-12-08T18:51:19.677Z,97448.53
2022-12-08T18:53:46.832Z,97445.97
2022-12-08T18:56:30.697Z,97446.81
2022-12-08T18:59:03.335Z,97445.16
2022-12-08T19:01:34.764Z,97445.16
2022-12-08T19:06:50.389Z,97445.19
2022-12-08T19:09:16.887Z,97444.38
2022-12-08T19:11:43.999Z,97447.78
2022-12-08T19:14:11.201Z,97442.72
2022-12-08T19:16:37.801Z,97446.13
2022-12-08T19:19:04.893Z,97448.66
2022-12-08T19:21:31.836Z,97443.56
2022-12-08T19:23:58.593Z,97444.41
2022-12-08T19:26:27.092Z,97445.28
2022-12-08T19:28:54.051Z,97451.19
2022-12-08T19:31:20.472Z,97446.13
2022-12-08T19:33:46.887Z,97439.38
2022-12-08T19:36:17.899Z,97441.88
2022-12-08T19:39:02.760Z,97442.78
2022-12-08T19:41:48.008Z,97451.22
2022-12-08T19:44:53.187Z,97451.22
2022-12-08T19:47:24.599Z,97449.50
2022-12-08T19:49:51.901Z,97446.13
2022-12-08T19:52:18.802Z,97441.03
2022-12-08T19:54:45.378Z,97443.59
2022-12-08T19:57:11.953Z,97444.44
2022-12-08T19:59:39.519Z,97440.25
2022-12-08T20:02:06.442Z,97435.16
2022-12-08T20:04:33.204Z,97436.84
2022-12-08T20:06:59.677Z,97441.94
2022-12-08T20:09:26.142Z,97438.56
2022-12-08T20:11:54.749Z,97441.13
2022-12-08T20:14:22.524Z,97442.00
2022-12-08T20:16:49.771Z,97440.31
2022-12-08T20:19:16.292Z,97442.03
2022-12-08T20:21:42.722Z,97435.25
2022-12-08T20:24:09.208Z,97439.53
2022-12-08T20:26:35.721Z,97437.84
2022-12-08T20:29:02.177Z,97431.06
2022-12-08T20:31:30.867Z,97428.56
2022-12-08T20:33:57.496Z,97431.97
2022-12-08T20:36:24.282Z,97431.97
2022-12-08T20:38:52.797Z,97436.25
2022-12-08T20:41:21.050Z,97434.56
2022-12-08T20:43:47.981Z,97436.25
2022-12-08T20:46:16.462Z,97437.13
2022-12-08T20:48:43.584Z,97437.09
2022-12-08T20:51:17.112Z,97446.41
2022-12-08T20:53:43.738Z,97449.84
2022-12-08T20:56:14.904Z,97444.72
2022-12-08T20:58:42.104Z,97461.63
2022-12-08T21:01:12.962Z,97448.13
2022-12-08T21:03:40.040Z,97444.75
2022-12-08T21:06:07.477Z,97454.91
2022-12-08T21:08:35.003Z,97446.44
2022-12-08T21:11:02.017Z,97445.63
2022-12-08T21:13:28.498Z,97450.69
2022-12-08T21:15:55.366Z,97443.91
2022-12-08T21:18:22.470Z,97447.31
2022-12-08T21:20:49.653Z,97440.53
2022-12-08T21:23:16.528Z,97445.56
2022-12-08T21:25:45.183Z,97447.28
2022-12-08T21:28:12.693Z,97446.41
2022-12-08T21:30:40.194Z,97436.28
2022-12-08T21:33:06.897Z,97443.91
2022-12-08T21:35:33.782Z,97447.31
2022-12-08T21:38:00.332Z,97443.94
2022-12-08T21:40:27.082Z,97443.09
2022-12-08T21:42:53.763Z,97441.41
2022-12-08T21:45:21.598Z,97436.34
2022-12-08T21:47:49.308Z,97438.03
2022-12-08T21:50:16.487Z,97437.19
2022-12-08T21:52:45.697Z,97437.19
2022-12-08T21:55:13.462Z,97437.19
2022-12-08T21:57:40.650Z,97435.53
2022-12-08T22:00:08.534Z,97435.56
2022-12-08T22:02:35.229Z,97433.84
2022-12-08T22:05:02.139Z,97436.34
2022-12-08T22:07:28.662Z,97435.53
2022-12-08T22:09:55.195Z,97434.72
2022-12-08T22:12:21.703Z,97433.03
2022-12-08T22:14:50.636Z,97433.06
2022-12-08T22:17:17.317Z,97439.81
2022-12-08T22:19:43.999Z,97437.28
2022-12-08T22:22:10.608Z,97439.84
2022-12-08T22:24:37.142Z,97427.19
2022-12-08T22:27:04.344Z,97431.41
2022-12-08T22:29:30.886Z,97432.28
2022-12-08T22:31:57.614Z,97432.28
2022-12-08T22:34:24.195Z,97428.91
2022-12-08T22:36:50.857Z,97423.84
2022-12-08T22:39:17.439Z,97431.47
2022-12-08T22:41:44.134Z,97427.25
2022-12-08T22:44:12.293Z,97422.19
2022-12-08T22:46:38.914Z,97420.50
2022-12-08T22:49:05.838Z,97426.41
2022-12-08T22:51:35.215Z,97416.31
2022-12-08T22:54:01.780Z,97419.66
2022-12-08T22:56:28.193Z,97416.31
2022-12-08T22:58:54.754Z,97417.97
2022-12-08T23:01:24.198Z,97414.59
2022-12-08T23:03:51.165Z,97413.75
2022-12-08T23:06:17.999Z,97421.38
2022-12-08T23:08:45.424Z,97414.63
2022-12-08T23:11:12.523Z,97420.50
2022-12-08T23:13:39.847Z,97422.22
2022-12-08T23:16:10.588Z,97418.81
2022-12-08T23:18:40.285Z,97416.31
2022-12-08T23:21:09.563Z,97421.38
2022-12-08T23:23:36.585Z,97419.66
2022-12-08T23:26:03.443Z,97420.50
2022-12-08T23:28:29.833Z,97414.59
2022-12-08T23:30:56.357Z,97418.78
2022-12-08T23:33:22.955Z,97411.19
2022-12-08T23:35:57.594Z,97412.91
2022-12-08T23:38:25.302Z,97408.72
2022-12-08T23:40:53.250Z,97412.91
2022-12-08T23:43:20.090Z,97404.47
2022-12-08T23:45:48.357Z,97407.00
2022-12-08T23:48:15.034Z,97401.94
2022-12-08T23:50:41.664Z,97404.47
2022-12-08T23:53:08.089Z,97402.78
2022-12-08T23:55:34.808Z,97389.28
2022-12-08T23:58:01.473Z,97396.06
